Flight Track Log - Related Links

Times and Time Zones

All times are in EDT time to prevent confusion due to time zone crossing. See the EJA922 flight status page for this flight to view local times or setup timezone preferences in your user account.

Time Position Orientation Groundspeed Altitude Reporting Facility
EDT Latitude Longitude Course Direction KTS MPH feet Rate Location/Type
Thu 09:34:39 PM 27.9333 -82.5500 204° Southwest 188 216 3,600  Level Tampa TRACON
Thu 09:35:39 PM 27.8667 -82.5667 192° South 256 295 8,300 3,750 Climbing Tampa TRACON
Thu 09:36:39 PM 27.8667 -82.4667 90° East 340 391 11,100 1,350 Climbing Tampa TRACON
Thu 09:37:39 PM 27.9000 -82.3500 72° East 405 466 11,000 -32 Descending Tampa TRACON
Thu 09:39:45 PM 27.9667 -82.1000 73° East 393 452 11,000  Level Orlando TRACON
Thu 09:40:39 PM 28.0000 -81.9833 72° East 407 468 11,000  Level Orlando TRACON
Thu 09:41:51 PM 28.0667 -81.8500 60° Northeast 409 471 11,000  Level Orlando TRACON
Thu 09:42:51 PM 28.1167 -81.7500 60° Northeast 397 457 11,000 -450 Level Orlando TRACON
Thu 09:43:51 PM 28.1667 -81.6667 56° Northeast 303 349 10,100 -1,053 Descending Orlando TRACON
Thu 09:44:45 PM 28.2167 -81.6000 50° Northeast 279 321 9,000 -611 Descending Orlando TRACON
Thu 09:45:39 PM 28.2500 -81.5333 60° Northeast 283 326 9,000  Level Orlando TRACON
Thu 09:47:09 PM 28.3333 -81.4333 47° Northeast 288 331 9,000  Level Orlando TRACON
Thu 09:47:39 PM 28.3667 -81.4333 360° North 292 336 9,000 -1,316 Level Orlando TRACON
Thu 09:49:03 PM 28.4833 -81.4333 360° North 293 337 6,500 -1,792 Descending Orlando TRACON
Thu 09:50:03 PM 28.5667 -81.4333 360° North 280 322 4,700 -1,833 Descending Orlando TRACON
Thu 09:50:51 PM 28.6167 -81.4000 30° Northeast 263 303 3,200 -1,000 Descending Orlando TRACON
Thu 09:51:51 PM 28.5833 -81.3333 120° Southeast 234 269 2,900 -500 Descending Orlando TRACON
Thu 09:52:51 PM 28.5167 -81.3333 180° South 231 266 2,200 -991 Descending Orlando TRACON
Thu 09:53:40 PM 28.4833 -81.3333 180° South 123 142 1,100 -1,347 Descending Orlando TRACON
Thu 09:55:00 PM 28.4294 -81.3090 170° South  Level Estimated
Thu 10:02:00 PM 28.4294 -81.3090 170° South  Level Estimated
Thu 10:03:00 PM 28.4294 -81.3090 170° South  Level Estimated
Thu 10:04:00 PM 28.4294 -81.3090 170° South  Level Estimated

Login

Don't have an account? Register now (free) for customized features, flight alerts, and more!